Flight Track Log - Related Links

Times and Time Zones

All times are in EST time to prevent confusion due to time zone crossing. See the N813JE flight status page for this flight to view local times or setup timezone preferences in your user account.

Time Position Orientation Groundspeed Altitude Reporting Facility
EST Latitude Longitude Course Direction KTS MPH feet Rate Location/Type
Thu 15:27:07 42.4667 -71.3167 200° South 122 140 1,100  Level KA90
Thu 15:28:13 42.4333 -71.3333 200° South 129 148 2,500 952 Climbing KA90
Thu 15:29:13 42.4000 -71.3667 216° Southwest 149 171 3,100 316 Climbing KA90
Thu 15:30:07 42.3667 -71.3667 180° South 171 197 3,100 368 Level KA90
Thu 15:31:07 42.3167 -71.3500 166° South 158 182 3,800 779 Climbing KA90
Thu 15:32:18 42.2928 -71.4042 239° Southwest 138 159 4,800 864 Climbing Boston Center
Thu 15:33:19 42.2744 -71.4481 241° Southwest 134 154 5,700 634 Climbing Boston Center
Thu 15:34:21 42.2567 -71.4922 241° Southwest 136 157 6,100 245 Climbing Boston Center
Thu 15:34:57 42.2425 -71.5281 242° Southwest 159 183 6,100  Level Boston Center
Thu 15:35:21 42.2342 -71.5475 240° Southwest 154 177 6,100  Level Boston Center
Thu 15:35:51 42.2231 -71.5736 240° Southwest 153 176 6,100 -98 Level Boston Center
Thu 15:36:22 42.2128 -71.5972 240° Southwest 153 176 6,000 -91 Descending Boston Center
Thu 15:36:57 42.2017 -71.6300 245° Southwest 149 171 6,000  Level Boston Center
Thu 15:37:24 42.1958 -71.6458 244° Southwest 147 169 6,000  Level Boston Center
Thu 15:38:01 42.1881 -71.6800 253° West 142 163 6,000  Level Boston Center
Thu 15:38:25 42.1833 -71.7014 253° West 144 166 6,000  Level Boston Center
Thu 15:39:02 42.1756 -71.7336 252° West 143 165 6,000  Level Boston Center
Thu 15:39:26 42.1708 -71.7522 251° West 143 165 6,000  Level Boston Center
Thu 15:40:02 42.1636 -71.7847 253° West 146 168 6,000  Level Boston Center
Thu 15:40:27 42.1594 -71.8042 254° West 144 166 6,000  Level Boston Center
Thu 15:41:04 42.1514 -71.8381 252° West 145 167 6,000  Level Boston Center
Thu 15:41:28 42.1469 -71.8553 251° West 144 166 6,000  Level Boston Center
Thu 15:42:04 42.1394 -71.8889 253° West 144 166 6,000  Level Boston Center
Thu 15:42:29 42.1339 -71.9094 250° West 141 162 6,000  Level Boston Center
Thu 15:43:05 42.1186 -71.9308 226° Southwest 143 165 6,000  Level Boston Center
Thu 15:43:29 42.1064 -71.9464 223° Southwest 144 166 6,000  Level Boston Center
Thu 15:44:04 42.0894 -71.9700 226° Southwest 141 162 6,000  Level Boston Center
Thu 15:44:31 42.0750 -71.9878 222° Southwest 150 173 6,000  Level Boston Center
Thu 15:45:04 42.0578 -72.0108 225° Southwest 158 182 6,000  Level Boston Center
Thu 15:45:32 42.0433 -72.0272 220° Southwest 155 178 6,000  Level Boston Center
Thu 15:46:02 42.0292 -72.0472 226° Southwest 153 176 6,000  Level Boston Center
Thu 15:46:35 42.0133 -72.0681 224° Southwest 155 178 6,000  Level Boston Center
Thu 15:47:09 41.9972 -72.0908 226° Southwest 153 176 6,000  Level Boston Center
Thu 15:47:36 41.9833 -72.1075 222° Southwest 150 173 6,000  Level Boston Center
Thu 15:48:10 41.9658 -72.1289 222° Southwest 153 176 6,000  Level Boston Center
Thu 15:48:37 41.9508 -72.1497 226° Southwest 152 175 6,000  Level Boston Center
Thu 15:49:10 41.9339 -72.1725 225° Southwest 153 176 6,000  Level Boston Center
Thu 15:49:37 41.9206 -72.1894 223° Southwest 152 175 6,000  Level Boston Center
Thu 15:50:11 41.9047 -72.2114 226° Southwest 148 170 6,000  Level Boston Center
Thu 15:50:38 41.8914 -72.2297 226° Southwest 152 175 6,000  Level Boston Center
Thu 15:51:11 41.8736 -72.2494 220° Southwest 150 173 6,000  Level Boston Center
Thu 15:51:41 41.8606 -72.2689 228° Southwest 153 176 6,000  Level Boston Center
Thu 15:52:06 41.8469 -72.2861 223° Southwest 153 176 6,000  Level Boston Center
Thu 15:52:42 41.8278 -72.3106 224° Southwest 151 174 6,000  Level Boston Center
Thu 15:53:07 41.8156 -72.3242 220° Southwest 151 174 6,000  Level Boston Center
Thu 15:53:44 41.7944 -72.3453 217° Southwest 151 174 6,000  Level Boston Center
Thu 15:54:09 41.7781 -72.3514 196° South 150 173 6,000  Level Boston Center
Thu 15:54:45 41.7558 -72.3711 214° Southwest 155 178 6,000  Level Boston Center
Thu 15:55:09 41.7378 -72.3803 201° Southwest 162 186 6,000  Level Boston Center
Thu 15:55:45 41.7178 -72.3981 214° Southwest 154 177 6,000  Level Boston Center
Thu 15:56:09 41.6994 -72.4100 206° Southwest 156 180 6,000  Level Boston Center
Thu 15:56:46 41.6772 -72.4281 211° Southwest 153 176 6,000  Level Boston Center
Thu 15:57:10 41.6614 -72.4397 209° Southwest 153 176 6,000  Level Boston Center
Thu 15:57:49 41.6403 -72.4547 208° Southwest 148 170 6,000  Level Boston Center
Thu 15:58:10 41.6236 -72.4667 208° Southwest 153 176 6,000  Level Boston Center
Thu 15:58:49 41.6019 -72.4833 210° Southwest 156 180 6,000  Level Boston Center
Thu 15:59:11 41.5858 -72.4933 205° Southwest 156 180 6,000  Level Boston Center
Thu 15:59:50 41.5644 -72.5103 211° Southwest 152 175 6,000  Level Boston Center
Thu 16:00:14 41.5478 -72.5231 210° Southwest 156 180 6,000  Level Boston Center
Thu 16:00:51 41.5233 -72.5400 207° Southwest 152 175 6,000  Level Boston Center
Thu 16:01:52 41.4861 -72.5672 209° Southwest 154 177 6,000  Level Boston Center
Thu 16:02:56 41.4497 -72.5944 209° Southwest 149 171 6,000  Level Boston Center
Thu 16:03:56 41.4128 -72.6200 207° Southwest 149 171 6,000  Level Boston Center
Thu 16:04:56 41.3756 -72.6525 213° Southwest 148 170 6,000  Level Boston Center
Thu 16:05:57 41.3675 -72.7039 258° West 144 166 6,000  Level Boston Center
Thu 16:07:00 41.3572 -72.7542 255° West 142 163 6,000  Level Boston Center
Thu 16:08:00 41.3467 -72.8036 254° West 140 161 6,000  Level Boston Center
Thu 16:09:01 41.3358 -72.8564 255° West 139 160 6,000 -344 Level Boston Center
Thu 16:10:02 41.3244 -72.9086 254° West 146 168 5,300 -774 Descending Boston Center
Thu 16:11:05 41.3114 -72.9678 254° West 163 188 4,400 -634 Descending Boston Center
Thu 16:12:05 41.3006 -73.0239 256° West 159 183 4,000 -198 Descending Boston Center
Thu 16:13:06 41.2900 -73.0753 255° West 136 157 4,000  Level Boston Center
Thu 16:14:07 41.2797 -73.1250 255° West 138 159 4,000  Level Boston Center
Thu 16:15:07 41.2692 -73.1725 254° West 142 163 4,000  Level Boston Center
Thu 16:16:09 41.2583 -73.2228 254° West 143 165 4,000  Level Boston Center
Thu 16:17:10 41.2478 -73.2703 254° West 137 158 4,000 -97 Level Boston Center
Thu 16:18:13 41.2378 -73.3194 255° West 138 159 3,800 -435 Descending Boston Center
Thu 16:19:14 41.1972 -73.3431 204° Southwest 147 169 3,100 -393 Descending Boston Center
Thu 16:20:15 41.1519 -73.3683 203° Southwest 149 171 3,000 -49 Descending Boston Center
Thu 16:21:16 41.1147 -73.3883 202° Southwest 146 168 3,000  Level Boston Center
Thu 16:22:16 41.0753 -73.4100 202° Southwest 148 170 3,000  Level Boston Center
Thu 16:23:20 41.0361 -73.4311 202° Southwest 151 174 3,000  Level Boston Center
Thu 16:24:20 40.9972 -73.4522 202° Southwest 151 174 3,000  Level Boston Center
Thu 16:25:21 40.9611 -73.4778 208° Southwest 150 173 3,000 -197 Level Boston Center
Thu 16:26:22 40.9492 -73.5283 253° West 149 171 2,600 -476 Descending Boston Center
Thu 16:27:27 40.9500 -73.6000 271° West 145 167 2,000 -288 Descending New York TRACON
Thu 16:28:27 40.9833 -73.6333 323° Northwest 136 157 2,000 -150 Level New York TRACON
Thu 16:29:27 41.0167 -73.6667 323° Northwest 137 158 1,700 -450 Descending New York TRACON
Thu 16:30:27 41.0333 -73.6833 323° Northwest 101 116 1,100 -600 Descending New York TRACON

Login

Don't have an account? Register now (free) for customized features, flight alerts, and more!